Time;durP1;ratioP1;P1;durP2;ratioP2;P2;SDS_P1;SDS_P2;PMS_P1;PMS_P2;Temp;Humidity;BMP_temperature;BMP_pressure;BME280_temperature;BME280_humidity;BME280_pressure;Samples;Min_cycle;Max_cycle;Signal;HPM_P1;HPM_P2
2022/09/18 00:01:42;;;;;;;;;;;;;;;9.77;83.70;99120.54;89180;1262;100046;-53
2022/09/18 00:03:50;;;;;;;;;;;;;;;9.79;83.72;99117.59;89269;1262;89672;-54
2022/09/18 00:05:57;;;;;;;;;;;;;;;9.81;83.82;99121.10;89228;1262;95579;-53
2022/09/18 00:08:06;;;;;;;;;;;;;;;9.83;83.80;99120.80;89265;1262;79402;-55
2022/09/18 00:10:13;;;;;;;;;;;;;;;9.85;83.82;99116.84;89102;1262;81205;-56
2022/09/18 00:12:20;;;;;;;;;;;;;;;9.85;83.86;99118.97;89245;1262;97805;-55
2022/09/18 00:14:28;;;;;;;;;;;;;;;9.86;83.78;99116.27;89219;1262;88286;-55
2022/09/18 00:16:35;;;;;;;;;;;;;;;9.90;83.78;99116.83;89270;1262;93282;-54
2022/09/18 00:18:43;;;;;;;;;;;;;;;9.90;83.78;99117.58;89260;1262;80809;-54
2022/09/18 00:20:50;;;;;;;;;;;;;;;9.88;83.80;99113.63;89256;1262;83022;-54
2022/09/18 00:22:58;;;;;;;;;;;;;;;9.92;83.84;99115.06;89308;1262;99716;-55
2022/09/18 00:25:08;;;;;;;;;;;;;;;9.93;83.89;99119.41;89261;1262;88053;-55
2022/09/18 00:27:15;;;;;;;;;;;;;;;9.96;83.89;99113.39;89315;1262;95170;-55
2022/09/18 00:29:25;;;;;;;;;;;;;;;10.00;83.91;99120.15;89275;1262;80763;-54
2022/09/18 00:31:35;;;;;;;;;;;;;;;10.03;83.87;99121.22;89326;1262;82565;-54
2022/09/18 00:33:42;;;;;;;;;;;;;;;10.03;83.95;99120.47;89292;1262;99226;-53
2022/09/18 00:35:50;;;;;;;;;;;;;;;10.05;83.95;99118.92;89294;1262;89050;-53
2022/09/18 00:37:59;;;;;;;;;;;;;;;10.07;83.96;99124.15;89276;1262;92880;-54
2022/09/18 00:40:07;;;;;;;;;;;;;;;10.11;83.94;99124.09;89276;1262;82215;-54
2022/09/18 00:42:14;;;;;;;;;;;;;;;10.12;83.88;99121.21;89312;1262;78871;-55
2022/09/18 00:44:40;;;;;;;;;;;;;;;10.18;83.85;99121.50;89250;1262;98885;-55
2022/09/18 00:46:47;;;;;;;;;;;;;;;10.18;83.89;99123.45;89066;1264;88949;-54
2022/09/18 00:49:01;;;;;;;;;;;;;;;10.22;83.94;99121.76;89010;1264;94915;-55
2022/09/18 00:51:09;;;;;;;;;;;;;;;10.22;84.00;99120.30;89207;1262;81943;-55
2022/09/18 00:53:16;;;;;;;;;;;;;;;10.22;84.02;99120.52;89280;1262;80350;-54
2022/09/18 00:55:28;;;;;;;;;;;;;;;10.24;83.97;99121.96;89155;1262;98315;-55
2022/09/18 00:57:39;;;;;;;;;;;;;;;10.22;83.99;99124.67;89223;1262;89006;-55
2022/09/18 00:59:51;;;;;;;;;;;;;;;10.27;84.15;99125.80;89222;1262;94946;-55
2022/09/18 01:01:59;;;;;;;;;;;;;;;10.25;84.07;99124.60;89259;1263;81868;-55
2022/09/18 01:04:10;;;;;;;;;;;;;;;10.26;84.08;99124.71;89235;1262;82650;-55
2022/09/18 01:06:23;;;;;;;;;;;;;;;10.27;84.10;99125.17;89271;1262;99441;-55
2022/09/18 01:08:37;;;;;;;;;;;;;;;10.28;84.11;99128.64;89274;1262;87451;-55
2022/09/18 01:10:59;;;;;;;;;;;;;;;10.26;84.11;99131.36;89265;1262;94626;-56
2022/09/18 01:13:11;;;;;;;;;;;;;;;10.28;84.14;99130.48;89283;1262;82060;-54
2022/09/18 01:15:25;;;;;;;;;;;;;;;10.31;84.26;99129.87;89283;1262;80744;-55
2022/09/18 01:17:39;;;;;;;;;;;;;;;10.33;84.13;99132.55;89272;1262;99567;-53
2022/09/18 01:20:17;;;;;;;;;;;;;;;10.33;84.13;99128.45;89293;1262;86974;-53
2022/09/18 01:22:33;;;;;;;;;;;;;;;10.34;84.22;99125.62;89222;1262;95018;-53
2022/09/18 01:24:54;;;;;;;;;;;;;;;10.34;84.19;99121.77;89210;1262;80906;-54
2022/09/18 01:27:04;;;;;;;;;;;;;;;10.35;84.18;99116.94;89272;1262;82982;-54
2022/09/18 01:29:15;;;;;;;;;;;;;;;10.34;84.22;99120.96;89268;1262;100208;-54
2022/09/18 01:31:28;;;;;;;;;;;;;;;10.35;84.21;99122.24;89257;1262;88344;-54
2022/09/18 01:33:43;;;;;;;;;;;;;;;10.39;84.25;99120.39;89236;1262;94805;-55
2022/09/18 01:35:53;;;;;;;;;;;;;;;10.40;84.19;99120.58;89244;1262;80591;-54
2022/09/18 01:38:07;;;;;;;;;;;;;;;10.37;84.45;99118.53;89260;1262;81684;-55
2022/09/18 01:40:16;;;;;;;;;;;;;;;10.37;84.36;99120.96;89207;1262;99368;-55
2022/09/18 01:42:26;;;;;;;;;;;;;;;10.40;84.33;99119.02;89273;1262;88316;-54
2022/09/18 01:44:35;;;;;;;;;;;;;;;10.40;84.30;99118.42;89211;1262;95086;-54
2022/09/18 01:46:44;;;;;;;;;;;;;;;10.42;84.24;99116.54;89235;1262;81035;-54
2022/09/18 01:48:55;;;;;;;;;;;;;;;10.43;84.30;99115.50;89262;1262;82271;-55
2022/09/18 01:51:08;;;;;;;;;;;;;;;10.44;84.29;99110.91;89234;1262;99445;-54
2022/09/18 01:53:19;;;;;;;;;;;;;;;10.40;84.31;99114.14;89263;1262;88616;-53
2022/09/18 01:55:30;;;;;;;;;;;;;;;10.39;84.33;99112.82;89244;1262;94680;-55
2022/09/18 01:57:41;;;;;;;;;;;;;;;10.37;84.42;99109.02;89295;1262;82057;-55
2022/09/18 01:59:50;;;;;;;;;;;;;;;10.34;84.45;99102.90;89283;1262;81790;-55
2022/09/18 02:02:01;;;;;;;;;;;;;;;10.37;84.47;99099.84;89187;1265;97163;-54
2022/09/18 02:04:13;;;;;;;;;;;;;;;10.35;84.57;99100.11;89305;1262;87662;-52
2022/09/18 02:06:25;;;;;;;;;;;;;;;10.38;84.46;99098.10;89172;1262;95325;-54
2022/09/18 02:08:38;;;;;;;;;;;;;;;10.40;84.47;99096.20;89216;1262;81584;-54
2022/09/18 02:10:49;;;;;;;;;;;;;;;10.40;84.59;99095.25;89269;1263;82822;-55
2022/09/18 02:12:56;;;;;;;;;;;;;;;10.39;84.53;99092.89;89288;1262;99470;-54
2022/09/18 02:15:09;;;;;;;;;;;;;;;10.37;84.57;99090.99;89220;1262;87645;-54
2022/09/18 02:17:20;;;;;;;;;;;;;;;10.36;84.56;99089.22;89199;1262;96294;-55
2022/09/18 02:19:28;;;;;;;;;;;;;;;10.36;84.58;99089.84;89210;1262;81411;-54
2022/09/18 02:21:36;;;;;;;;;;;;;;;10.39;84.53;99089.29;89221;1262;81786;-55
2022/09/18 02:23:44;;;;;;;;;;;;;;;10.41;84.53;99092.59;89234;1262;99431;-55
2022/09/18 02:25:54;;;;;;;;;;;;;;;10.42;84.52;99092.29;89228;1262;88975;-55
2022/09/18 02:28:02;;;;;;;;;;;;;;;10.42;84.50;99092.45;89218;1262;95792;-56
2022/09/18 02:30:11;;;;;;;;;;;;;;;10.43;84.54;99092.15;89065;1264;82004;-55
2022/09/18 02:32:18;;;;;;;;;;;;;;;10.45;84.59;99090.02;89248;1262;82536;-55
2022/09/18 02:34:26;;;;;;;;;;;;;;;10.45;84.57;99090.68;89211;1262;100817;-54
2022/09/18 02:36:47;;;;;;;;;;;;;;;10.47;84.51;99088.35;89096;1265;88944;-55
2022/09/18 02:39:06;;;;;;;;;;;;;;;10.44;84.64;99084.04;89098;1264;95355;-55
2022/09/18 02:41:17;;;;;;;;;;;;;;;10.45;84.64;99083.58;89103;1264;81380;-55
2022/09/18 02:43:34;;;;;;;;;;;;;;;10.46;84.74;99083.79;89131;1264;82566;-55
2022/09/18 02:45:49;;;;;;;;;;;;;;;10.43;84.78;99083.09;89131;1264;98803;-55
2022/09/18 02:48:08;;;;;;;;;;;;;;;10.45;84.84;99083.58;89122;1264;86469;-54
2022/09/18 02:50:25;;;;;;;;;;;;;;;10.47;84.83;99083.61;89034;1265;94137;-56
2022/09/18 02:52:39;;;;;;;;;;;;;;;10.49;84.82;99085.88;89149;1264;80988;-54
2022/09/18 02:54:54;;;;;;;;;;;;;;;10.51;84.75;99083.80;89086;1264;82846;-55
2022/09/18 02:57:06;;;;;;;;;;;;;;;10.51;84.76;99082.19;89109;1264;99910;-54
2022/09/18 02:59:17;;;;;;;;;;;;;;;10.50;84.81;99082.67;89075;1264;89257;-54
2022/09/18 03:01:26;;;;;;;;;;;;;;;10.47;84.90;99078.16;89089;1264;95441;-54
2022/09/18 03:03:37;;;;;;;;;;;;;;;10.49;84.86;99075.36;88996;1264;80686;-53
2022/09/18 03:05:45;;;;;;;;;;;;;;;10.51;84.85;99071.65;89088;1264;80164;-52
2022/09/18 03:07:55;;;;;;;;;;;;;;;10.50;84.82;99067.66;89098;1264;99619;-55
2022/09/18 03:10:02;;;;;;;;;;;;;;;10.47;84.85;99066.83;89058;1265;88506;-55
2022/09/18 03:12:15;;;;;;;;;;;;;;;10.47;84.87;99063.46;89065;1264;95234;-54
2022/09/18 03:14:22;;;;;;;;;;;;;;;10.45;84.91;99064.52;89062;1264;81491;-55
2022/09/18 03:16:29;;;;;;;;;;;;;;;10.44;84.98;99067.25;89128;1265;82416;-53
2022/09/18 03:18:36;;;;;;;;;;;;;;;10.44;84.91;99063.27;89095;1265;100367;-53
2022/09/18 03:20:43;;;;;;;;;;;;;;;10.46;84.94;99063.48;89106;1264;88073;-53
2022/09/18 03:22:53;;;;;;;;;;;;;;;10.45;84.98;99062.31;89177;1268;94996;-53
2022/09/18 03:25:00;;;;;;;;;;;;;;;10.45;84.97;99058.33;89121;1264;81584;-53
2022/09/18 03:27:09;;;;;;;;;;;;;;;10.47;84.89;99056.98;89151;1264;80399;-54
2022/09/18 03:29:19;;;;;;;;;;;;;;;10.48;84.83;99053.65;89128;1264;98740;-55
2022/09/18 03:31:27;;;;;;;;;;;;;;;10.49;84.89;99052.31;89146;1264;89363;-54
2022/09/18 03:33:34;;;;;;;;;;;;;;;10.48;84.90;99055.23;89054;1264;93448;-54
2022/09/18 03:35:42;;;;;;;;;;;;;;;10.47;84.94;99057.80;89077;1266;80790;-54
2022/09/18 03:37:49;;;;;;;;;;;;;;;10.49;84.96;99060.50;89149;1264;80770;-54
2022/09/18 03:39:58;;;;;;;;;;;;;;;10.51;84.96;99060.94;89077;1264;99411;-55
2022/09/18 03:42:08;;;;;;;;;;;;;;;10.50;85.02;99060.16;89220;1264;89088;-54
2022/09/18 03:44:15;;;;;;;;;;;;;;;10.52;85.08;99063.63;89165;1263;95388;-54
2022/09/18 03:46:22;;;;;;;;;;;;;;;10.53;85.09;99067.02;89162;1264;81678;-54
2022/09/18 03:48:30;;;;;;;;;;;;;;;10.55;85.09;99073.92;89210;1263;83421;-53
2022/09/18 03:50:37;;;;;;;;;;;;;;;10.55;85.10;99075.65;89063;1264;97378;-54
2022/09/18 03:52:44;;;;;;;;;;;;;;;10.57;85.15;99080.73;89177;1267;89037;-54
2022/09/18 03:54:53;;;;;;;;;;;;;;;10.60;85.20;99082.20;89205;1264;95527;-54
2022/09/18 03:57:00;;;;;;;;;;;;;;;10.59;85.15;99082.60;89217;1262;82265;-55
2022/09/18 03:59:09;;;;;;;;;;;;;;;10.62;85.19;99085.38;89235;1263;80724;-55
2022/09/18 04:01:17;;;;;;;;;;;;;;;10.65;85.20;99089.09;89256;1264;99672;-55
2022/09/18 04:03:24;;;;;;;;;;;;;;;10.67;85.30;99091.77;89220;1262;86976;-53
2022/09/18 04:05:47;;;;;;;;;;;;;;;10.79;85.19;99093.59;89266;1262;94680;-53
2022/09/18 04:07:54;;;;;;;;;;;;;;;10.81;85.10;99098.05;89245;1263;81505;-53
2022/09/18 04:10:01;;;;;;;;;;;;;;;10.83;85.14;99099.83;89217;1262;82050;-54
2022/09/18 04:12:11;;;;;;;;;;;;;;;10.84;85.25;99101.48;89227;1263;99864;-56
2022/09/18 04:14:18;;;;;;;;;;;;;;;10.82;85.34;99099.38;89213;1263;87842;-55
2022/09/18 04:16:27;;;;;;;;;;;;;;;10.87;85.33;99101.78;89228;1263;94992;-54
2022/09/18 04:18:34;;;;;;;;;;;;;;;10.89;85.27;99099.21;89209;1264;82004;-54
2022/09/18 04:20:41;;;;;;;;;;;;;;;10.90;85.16;99100.12;89197;1264;82228;-54
2022/09/18 04:22:48;;;;;;;;;;;;;;;10.95;85.18;99100.65;89209;1263;99164;-55
2022/09/18 04:24:56;;;;;;;;;;;;;;;10.95;85.34;99101.27;89212;1264;88226;-54
2022/09/18 04:27:03;;;;;;;;;;;;;;;10.95;85.33;99097.83;89169;1264;93477;-52
2022/09/18 04:29:10;;;;;;;;;;;;;;;10.96;85.29;99097.10;89223;1262;81537;-52
2022/09/18 04:31:17;;;;;;;;;;;;;;;10.95;85.35;99102.60;89219;1263;82035;-54
2022/09/18 04:33:27;;;;;;;;;;;;;;;10.97;85.40;99100.59;89199;1262;100344;-54
2022/09/18 04:35:34;;;;;;;;;;;;;;;10.99;85.28;99099.33;89210;1263;88332;-54
2022/09/18 04:37:42;;;;;;;;;;;;;;;11.02;85.37;99101.08;89232;1263;94507;-55
2022/09/18 04:39:50;;;;;;;;;;;;;;;11.03;85.34;99100.77;89197;1262;80112;-55
2022/09/18 04:41:58;;;;;;;;;;;;;;;11.05;85.27;99102.08;89306;1264;82860;-54
2022/09/18 04:44:09;;;;;;;;;;;;;;;11.09;85.23;99101.55;88837;1263;589460;-55
2022/09/18 04:46:17;;;;;;;;;;;;;;;11.09;85.31;99100.97;89254;1264;89834;-54
2022/09/18 04:48:24;;;;;;;;;;;;;;;11.11;85.20;99102.55;89216;1264;95058;-53
2022/09/18 04:50:31;;;;;;;;;;;;;;;11.11;85.18;99101.47;89252;1264;81926;-53
2022/09/18 04:52:38;;;;;;;;;;;;;;;11.13;85.22;99100.70;89213;1263;82326;-55
2022/09/18 04:54:46;;;;;;;;;;;;;;;11.13;85.24;99099.58;89214;1263;99363;-55
2022/09/18 04:56:53;;;;;;;;;;;;;;;11.14;85.35;99094.67;89255;1264;87676;-54
2022/09/18 04:59:00;;;;;;;;;;;;;;;11.12;85.34;99099.35;89101;1262;95295;-54
2022/09/18 05:01:10;;;;;;;;;;;;;;;11.16;85.31;99097.34;89169;1269;82001;-54
2022/09/18 05:03:18;;;;;;;;;;;;;;;11.15;85.29;99095.58;89223;1262;82369;-54
2022/09/18 05:05:27;;;;;;;;;;;;;;;11.15;85.18;99093.48;89197;1263;98573;-54
2022/09/18 05:07:34;;;;;;;;;;;;;;;11.17;85.30;99092.02;89208;1262;88203;-55
2022/09/18 05:09:41;;;;;;;;;;;;;;;11.19;85.25;99091.38;89183;1264;95287;-55
2022/09/18 05:11:53;;;;;;;;;;;;;;;11.23;85.09;99097.45;89203;1264;82574;-53
2022/09/18 05:14:00;;;;;;;;;;;;;;;11.25;85.13;99095.95;89150;1264;81297;-53
2022/09/18 05:16:07;;;;;;;;;;;;;;;11.26;85.10;99098.57;89222;1263;98447;-54
2022/09/18 05:18:14;;;;;;;;;;;;;;;11.25;85.14;99095.67;89198;1262;88751;-54
2022/09/18 05:20:21;;;;;;;;;;;;;;;11.29;85.06;99095.46;89173;1262;95689;-55
2022/09/18 05:22:31;;;;;;;;;;;;;;;11.29;85.16;99096.36;89200;1263;81355;-55
2022/09/18 05:24:37;;;;;;;;;;;;;;;11.33;85.02;99095.08;89136;1264;80186;-55
2022/09/18 05:26:45;;;;;;;;;;;;;;;11.35;84.98;99095.57;89239;1262;97899;-55
2022/09/18 05:28:52;;;;;;;;;;;;;;;11.35;85.02;99098.71;89268;1264;87732;-55
2022/09/18 05:31:01;;;;;;;;;;;;;;;11.31;85.11;99098.55;89299;1263;95702;-55
2022/09/18 05:33:10;;;;;;;;;;;;;;;11.32;85.10;99101.75;89217;1263;81907;-54
2022/09/18 05:35:17;;;;;;;;;;;;;;;11.35;85.08;99102.50;89207;1263;82325;-53
2022/09/18 05:37:29;;;;;;;;;;;;;;;11.40;84.97;99099.08;89189;1264;97370;-55
2022/09/18 05:39:36;;;;;;;;;;;;;;;11.38;84.95;99100.05;89208;1262;89031;-54
2022/09/18 05:41:43;;;;;;;;;;;;;;;11.39;85.05;99105.86;89170;1263;93715;-55
2022/09/18 05:43:50;;;;;;;;;;;;;;;11.38;85.00;99106.67;89182;1264;81989;-55
2022/09/18 05:45:58;;;;;;;;;;;;;;;11.39;84.96;99107.64;89192;1263;81277;-55
2022/09/18 05:48:07;;;;;;;;;;;;;;;11.42;84.95;99106.38;89189;1263;98378;-55
2022/09/18 05:50:14;;;;;;;;;;;;;;;11.42;84.94;99107.23;89176;1262;88609;-54
2022/09/18 05:52:22;;;;;;;;;;;;;;;11.43;84.90;99106.89;89223;1263;94812;-54
2022/09/18 05:54:29;;;;;;;;;;;;;;;11.44;84.91;99104.97;89137;1267;82904;-52
2022/09/18 05:56:36;;;;;;;;;;;;;;;11.46;84.90;99104.54;89248;1262;81814;-52
2022/09/18 05:58:43;;;;;;;;;;;;;;;11.47;84.90;99105.02;89228;1263;99666;-54
2022/09/18 06:00:51;;;;;;;;;;;;;;;11.47;84.80;99103.98;89179;1264;88038;-54
2022/09/18 06:02:59;;;;;;;;;;;;;;;11.49;84.80;99105.13;89222;1264;94367;-55
2022/09/18 06:05:09;;;;;;;;;;;;;;;11.51;84.75;99107.88;89226;1264;81549;-55
2022/09/18 06:07:16;;;;;;;;;;;;;;;11.53;84.75;99104.75;89266;1264;82497;-55
2022/09/18 06:09:23;;;;;;;;;;;;;;;11.58;84.70;99106.34;89219;1264;98330;-54
2022/09/18 06:11:30;;;;;;;;;;;;;;;11.58;84.69;99109.60;89238;1262;88523;-54
2022/09/18 06:13:37;;;;;;;;;;;;;;;11.63;84.62;99108.73;89228;1263;95041;-55
2022/09/18 06:15:47;;;;;;;;;;;;;;;11.65;84.62;99111.03;89300;1262;82118;-55
2022/09/18 06:17:54;;;;;;;;;;;;;;;11.66;84.51;99111.14;89242;1264;81241;-52
2022/09/18 06:20:02;;;;;;;;;;;;;;;11.64;84.59;99113.34;89190;1263;99727;-52
2022/09/18 06:22:09;;;;;;;;;;;;;;;11.68;84.44;99114.12;89199;1263;88224;-52
2022/09/18 06:24:16;;;;;;;;;;;;;;;11.68;84.46;99114.13;89184;1262;95332;-52
2022/09/18 06:26:23;;;;;;;;;;;;;;;11.71;84.32;99114.48;89185;1264;80942;-53
2022/09/18 06:28:31;;;;;;;;;;;;;;;11.73;84.26;99114.41;89162;1262;82742;-52
2022/09/18 06:30:38;;;;;;;;;;;;;;;11.72;84.32;99114.21;89173;1264;99149;-53
2022/09/18 06:32:45;;;;;;;;;;;;;;;11.73;84.18;99114.91;89186;1262;88575;-55
2022/09/18 06:34:52;;;;;;;;;;;;;;;11.74;84.15;99115.65;89162;1264;94405;-55
2022/09/18 06:37:02;;;;;;;;;;;;;;;11.72;84.17;99117.39;89172;1264;81875;-55
2022/09/18 06:39:09;;;;;;;;;;;;;;;11.73;84.10;99118.77;89106;1264;81453;-54
2022/09/18 06:41:17;;;;;;;;;;;;;;;11.74;83.98;99117.56;89085;1264;98002;-54
2022/09/18 06:43:24;;;;;;;;;;;;;;;11.74;83.85;99115.41;89136;1264;88918;-53
2022/09/18 06:45:33;;;;;;;;;;;;;;;11.72;83.92;99117.39;89112;1264;93293;-54
2022/09/18 06:47:39;;;;;;;;;;;;;;;11.72;83.76;99121.45;89122;1265;82257;-55
2022/09/18 06:49:46;;;;;;;;;;;;;;;11.72;83.77;99118.59;89147;1264;81331;-54
2022/09/18 06:51:54;;;;;;;;;;;;;;;11.69;83.86;99119.91;89142;1264;97246;-52
2022/09/18 06:54:01;;;;;;;;;;;;;;;11.71;83.68;99124.89;89180;1264;86339;-53
2022/09/18 06:56:08;;;;;;;;;;;;;;;11.72;83.66;99123.09;89174;1264;93374;-53
2022/09/18 06:58:16;;;;;;;;;;;;;;;11.75;83.56;99124.24;89077;1267;82335;-53
2022/09/18 07:00:23;;;;;;;;;;;;;;;11.77;83.45;99125.33;89128;1264;80363;-53
2022/09/18 07:02:31;;;;;;;;;;;;;;;11.74;83.33;99123.31;89136;1268;99112;-55
2022/09/18 07:04:38;;;;;;;;;;;;;;;11.70;83.43;99126.45;89196;1264;87400;-56
2022/09/18 07:06:46;;;;;;;;;;;;;;;11.70;83.47;99131.19;89121;1264;94844;-54
2022/09/18 07:08:53;;;;;;;;;;;;;;;11.72;83.34;99132.98;89059;1264;82381;-54
2022/09/18 07:11:03;;;;;;;;;;;;;;;11.76;83.24;99133.37;89108;1264;81732;-55
2022/09/18 07:13:11;;;;;;;;;;;;;;;11.81;83.12;99137.04;89070;1264;99791;-54
2022/09/18 07:15:20;;;;;;;;;;;;;;;11.81;83.10;99134.88;89125;1264;85820;-54
2022/09/18 07:17:31;;;;;;;;;;;;;;;11.84;82.89;99136.67;88999;1264;95791;-53
2022/09/18 07:19:38;;;;;;;;;;;;;;;11.82;82.92;99132.90;88979;1267;79642;-55
2022/09/18 07:21:48;;;;;;;;;;;;;;;11.80;82.89;99135.77;89119;1264;81803;-55
2022/09/18 07:23:57;;;;;;;;;;;;;;;11.80;82.79;99137.17;89130;1264;98539;-54
2022/09/18 07:26:05;;;;;;;;;;;;;;;11.80;82.69;99140.95;89085;1264;89372;-55
2022/09/18 07:28:13;;;;;;;;;;;;;;;11.75;82.75;99142.82;89005;1264;95048;-55
2022/09/18 07:30:21;;;;;;;;;;;;;;;11.74;82.49;99144.71;89123;1263;80833;-54
2022/09/18 07:32:28;;;;;;;;;;;;;;;11.66;82.53;99145.45;89159;1264;81979;-55
2022/09/18 07:34:36;;;;;;;;;;;;;;;11.69;82.43;99144.00;89103;1264;97642;-56
2022/09/18 07:36:43;;;;;;;;;;;;;;;11.75;82.26;99143.28;89192;1264;89209;-52
2022/09/18 07:38:52;;;;;;;;;;;;;;;11.76;82.41;99142.51;89137;1264;95816;-53
2022/09/18 07:41:02;;;;;;;;;;;;;;;11.80;82.45;99147.48;89178;1263;79565;-52
2022/09/18 07:43:11;;;;;;;;;;;;;;;11.84;82.33;99147.98;89205;1264;82636;-54
2022/09/18 07:45:18;;;;;;;;;;;;;;;11.89;82.10;99149.15;89180;1262;96677;-53
2022/09/18 07:47:27;;;;;;;;;;;;;;;11.94;82.00;99149.06;89204;1263;87123;-54
2022/09/18 07:49:39;;;;;;;;;;;;;;;11.96;81.86;99150.25;89140;1262;93922;-54
2022/09/18 07:51:46;;;;;;;;;;;;;;;11.96;81.98;99151.08;89172;1263;79995;-54
2022/09/18 07:53:53;;;;;;;;;;;;;;;12.01;81.91;99152.34;89158;1262;80712;-55
2022/09/18 07:56:06;;;;;;;;;;;;;;;12.03;81.90;99152.73;89126;1262;98877;-55
2022/09/18 07:58:19;;;;;;;;;;;;;;;12.02;81.63;99158.94;89160;1262;88608;-54
2022/09/18 08:00:29;;;;;;;;;;;;;;;11.94;81.72;99157.14;89160;1263;91707;-54
2022/09/18 08:02:36;;;;;;;;;;;;;;;11.95;81.47;99156.02;89184;1262;81083;-53
2022/09/18 08:04:44;;;;;;;;;;;;;;;11.92;81.49;99155.23;89163;1262;82689;-52
2022/09/18 08:07:02;;;;;;;;;;;;;;;11.96;81.48;99160.16;89176;1263;97594;-55
2022/09/18 08:09:09;;;;;;;;;;;;;;;12.01;81.41;99158.52;89166;1262;89111;-55
2022/09/18 08:11:18;;;;;;;;;;;;;;;12.09;81.33;99160.44;89090;1264;94894;-55
2022/09/18 08:13:25;;;;;;;;;;;;;;;12.20;81.13;99158.23;89102;1264;81726;-54
2022/09/18 08:15:33;;;;;;;;;;;;;;;12.35;80.99;99154.86;89173;1264;80893;-54
2022/09/18 08:17:46;;;;;;;;;;;;;;;12.49;80.93;99153.85;89159;1264;99323;-54
2022/09/18 08:19:53;;;;;;;;;;;;;;;12.57;80.76;99149.46;89198;1263;88800;-54
2022/09/18 08:22:01;;;;;;;;;;;;;;;12.62;80.67;99147.64;89239;1263;95897;-53
2022/09/18 08:24:10;;;;;;;;;;;;;;;12.74;80.11;99149.02;89218;1262;80859;-53
2022/09/18 08:26:17;;;;;;;;;;;;;;;12.80;80.07;99149.86;89201;1262;81796;-54
2022/09/18 08:28:27;;;;;;;;;;;;;;;12.89;80.16;99149.91;89171;1262;98665;-53
2022/09/18 08:30:37;;;;;;;;;;;;;;;13.01;79.92;99150.31;89140;1262;86153;-52
2022/09/18 08:32:49;;;;;;;;;;;;;;;13.06;79.84;99152.41;89120;1264;94534;-55
2022/09/18 08:34:58;;;;;;;;;;;;;;;13.19;79.55;99153.91;89039;1265;80033;-55
2022/09/18 08:37:09;;;;;;;;;;;;;;;13.22;79.57;99151.59;89147;1264;81920;-54
2022/09/18 08:39:17;;;;;;;;;;;;;;;13.34;79.33;99150.74;89112;1264;97854;-55
2022/09/18 08:41:38;;;;;;;;;;;;;;;13.39;79.13;99151.29;89121;1264;87836;-52
2022/09/18 08:43:59;;;;;;;;;;;;;;;13.47;78.81;99150.25;89130;1264;92621;-54
2022/09/18 08:46:16;;;;;;;;;;;;;;;13.55;78.80;99149.96;89113;1264;77700;-54
2022/09/18 08:48:27;;;;;;;;;;;;;;;13.70;78.60;99148.08;89112;1264;81177;-55
2022/09/18 08:50:38;;;;;;;;;;;;;;;13.75;78.39;99150.64;89135;1264;98579;-55
2022/09/18 08:52:49;;;;;;;;;;;;;;;13.85;78.44;99150.36;89129;1264;87737;-55
2022/09/18 08:55:02;;;;;;;;;;;;;;;13.96;78.23;99147.70;89143;1264;93487;-55
2022/09/18 08:57:16;;;;;;;;;;;;;;;13.91;78.29;99147.55;89141;1264;79713;-53
2022/09/18 08:59:29;;;;;;;;;;;;;;;13.98;77.77;99145.11;89219;1262;81184;-53
2022/09/18 09:01:44;;;;;;;;;;;;;;;14.01;77.75;99145.29;89213;1262;98979;-53
2022/09/18 09:04:01;;;;;;;;;;;;;;;13.98;77.65;99141.48;89077;1264;90301;-53
2022/09/18 09:06:30;;;;;;;;;;;;;;;14.00;77.84;99142.30;89223;1262;94321;-54
2022/09/18 09:09:03;;;;;;;;;;;;;;;14.12;77.56;99138.28;89204;1262;79644;-54
2022/09/18 09:11:18;;;;;;;;;;;;;;;14.28;77.49;99136.26;89213;1262;80219;-55
2022/09/18 09:14:06;;;;;;;;;;;;;;;14.45;77.62;99139.20;89044;1264;98487;-56
2022/09/18 09:16:17;;;;;;;;;;;;;;;14.73;76.89;99138.00;89239;1262;88409;-56
2022/09/18 09:18:30;;;;;;;;;;;;;;;14.88;76.92;99138.66;89181;1262;92126;-55
2022/09/18 09:20:49;;;;;;;;;;;;;;;15.35;77.21;99133.51;89209;1262;78801;-55
2022/09/18 09:23:04;;;;;;;;;;;;;;;16.04;76.92;99133.41;89181;1262;80886;-54
2022/09/18 09:25:20;;;;;;;;;;;;;;;16.32;76.03;99132.97;89195;1262;97943;-53
2022/09/18 09:27:33;;;;;;;;;;;;;;;16.37;75.34;99132.92;89197;1262;87876;-54
2022/09/18 09:29:44;;;;;;;;;;;;;;;16.66;74.60;99130.44;89161;1262;93309;-54
2022/09/18 09:31:54;;;;;;;;;;;;;;;16.91;73.50;99128.24;89201;1262;79383;-53
2022/09/18 09:34:05;;;;;;;;;;;;;;;16.94;72.46;99128.70;89168;1262;81213;-55
2022/09/18 09:36:18;;;;;;;;;;;;;;;16.89;72.05;99128.67;89216;1262;99402;-55
2022/09/18 09:38:40;;;;;;;;;;;;;;;16.93;71.22;99128.91;89193;1262;86985;-55
2022/09/18 09:40:50;;;;;;;;;;;;;;;16.85;71.64;99130.05;89195;1260;93798;-55
2022/09/18 09:43:02;;;;;;;;;;;;;;;17.04;71.63;99127.09;89258;1262;80326;-55
2022/09/18 09:45:15;;;;;;;;;;;;;;;17.18;71.03;99129.53;89216;1263;80923;-55
2022/09/18 09:47:30;;;;;;;;;;;;;;;17.25;70.84;99132.14;89204;1262;98345;-54
2022/09/18 09:49:45;;;;;;;;;;;;;;;17.50;70.90;99135.36;89210;1262;89372;-55
2022/09/18 09:51:58;;;;;;;;;;;;;;;17.67;70.60;99140.01;89206;1262;93824;-53
2022/09/18 09:54:11;;;;;;;;;;;;;;;17.82;70.19;99140.73;89030;1264;79861;-55
2022/09/18 09:56:25;;;;;;;;;;;;;;;17.81;70.01;99143.55;89192;1262;81525;-53
2022/09/18 09:58:46;;;;;;;;;;;;;;;17.92;69.92;99141.15;89157;1262;98642;-58
2022/09/18 10:01:07;;;;;;;;;;;;;;;18.00;69.71;99148.16;89155;1262;86518;-58
2022/09/18 10:03:46;;;;;;;;;;;;;;;17.99;68.40;99144.56;89142;1262;93528;-56
2022/09/18 10:06:02;;;;;;;;;;;;;;;17.83;66.33;99148.54;89091;1263;78846;-56
2022/09/18 10:08:27;;;;;;;;;;;;;;;17.78;66.50;99151.09;89157;1264;81497;-59
2022/09/18 10:10:44;;;;;;;;;;;;;;;17.63;65.80;99149.98;89146;1262;99159;-58
2022/09/18 10:12:56;;;;;;;;;;;;;;;17.43;65.59;99150.65;89194;1262;88499;-57
2022/09/18 10:15:14;;;;;;;;;;;;;;;17.37;65.85;99151.81;88964;1264;94712;-59
2022/09/18 10:17:24;;;;;;;;;;;;;;;17.30;65.86;99150.95;89133;1262;79524;-57
2022/09/18 10:19:38;;;;;;;;;;;;;;;17.21;66.12;99156.79;89194;1262;82264;-58
2022/09/18 10:21:45;;;;;;;;;;;;;;;17.14;65.45;99158.38;89150;1262;98978;-54
2022/09/18 10:23:56;;;;;;;;;;;;;;;17.13;65.37;99163.50;89176;1262;87835;-54
2022/09/18 10:26:05;;;;;;;;;;;;;;;17.15;65.24;99165.70;89148;1262;94247;-54
2022/09/18 10:28:20;;;;;;;;;;;;;;;17.14;65.70;99163.40;89200;1262;80917;-52
2022/09/18 10:30:28;;;;;;;;;;;;;;;17.04;65.25;99166.26;89197;1262;80163;-53
2022/09/18 10:32:38;;;;;;;;;;;;;;;16.99;65.81;99166.34;89184;1262;99908;-55
2022/09/18 10:34:50;;;;;;;;;;;;;;;16.98;65.57;99166.89;89229;1262;88404;-55
2022/09/18 10:37:01;;;;;;;;;;;;;;;17.03;65.85;99167.23;89147;1262;94805;-54
2022/09/18 10:39:35;;;;;;;;;;;;;;;16.97;66.00;99170.42;89175;1262;79969;-55
2022/09/18 10:41:43;;;;;;;;;;;;;;;16.95;65.89;99169.27;89284;1262;80498;-56
2022/09/18 10:44:01;;;;;;;;;;;;;;;16.84;65.47;99170.58;89165;1262;98900;-55
2022/09/18 10:46:09;;;;;;;;;;;;;;;16.72;65.77;99173.96;89069;1264;87723;-53
2022/09/18 10:48:21;;;;;;;;;;;;;;;16.64;66.08;99173.39;89193;1262;92957;-55
2022/09/18 10:50:29;;;;;;;;;;;;;;;16.60;66.21;99174.98;89146;1262;79646;-55
2022/09/18 10:52:38;;;;;;;;;;;;;;;16.68;66.33;99172.55;89190;1262;82560;-56
2022/09/18 10:55:11;;;;;;;;;;;;;;;16.67;66.25;99179.68;89121;1264;97042;-54
2022/09/18 10:57:29;;;;;;;;;;;;;;;16.66;66.61;99179.66;89195;1262;87524;-54
2022/09/18 10:59:37;;;;;;;;;;;;;;;16.78;66.53;99181.55;89187;1262;93506;-53
2022/09/18 11:01:44;;;;;;;;;;;;;;;16.88;66.14;99182.23;89196;1262;79433;-54
2022/09/18 11:04:02;;;;;;;;;;;;;;;16.85;66.26;99182.98;89241;1262;81110;-53
2022/09/18 11:06:19;;;;;;;;;;;;;;;16.91;65.39;99184.55;89193;1262;99608;-53
2022/09/18 11:12:24;;;;;;;;;;;;;;;16.86;65.36;99187.83;89177;1262;95037;-54
2022/09/18 11:14:58;;;;;;;;;;;;;;;16.86;65.52;99191.44;89022;1266;78366;-54
2022/09/18 11:17:35;;;;;;;;;;;;;;;16.93;65.78;99189.10;89174;1262;80731;-53
2022/09/18 11:19:54;;;;;;;;;;;;;;;17.01;65.89;99192.92;88960;1265;99698;-56
2022/09/18 11:22:12;;;;;;;;;;;;;;;17.07;65.65;99191.73;89009;1264;87223;-53
2022/09/18 11:24:29;;;;;;;;;;;;;;;16.96;65.07;99193.86;89024;1264;94205;-54
2022/09/18 11:27:22;;;;;;;;;;;;;;;16.87;64.30;99194.11;89043;1264;78204;-54